createdAt,value
2019-03-22T00:03:09.171Z,9.40
2019-03-22T00:08:13.483Z,9.50
2019-03-22T00:13:17.746Z,9.40
2019-03-22T00:18:21.992Z,9.40
2019-03-22T00:23:26.239Z,9.40
2019-03-22T00:28:30.494Z,9.40
2019-03-22T00:33:34.971Z,9.50
2019-03-22T00:38:39.221Z,9.40
2019-03-22T00:43:43.483Z,9.30
2019-03-22T00:48:47.975Z,9.10
2019-03-22T00:53:52.218Z,9.00
2019-03-22T00:58:56.568Z,9.10
2019-03-22T01:04:00.804Z,9.00
2019-03-22T01:09:06.338Z,9.00
2019-03-22T01:14:10.579Z,9.10
2019-03-22T01:19:14.814Z,9.10
2019-03-22T01:24:19.123Z,9.10
2019-03-22T01:29:23.367Z,9.20
2019-03-22T01:34:27.607Z,9.10
2019-03-22T01:39:32.134Z,9.10
2019-03-22T01:44:36.442Z,9.00
2019-03-22T01:49:40.690Z,9.00
2019-03-22T01:54:45.219Z,9.00
2019-03-22T01:59:49.459Z,9.10
2019-03-22T02:04:53.714Z,9.10
2019-03-22T02:09:57.971Z,9.00
2019-03-22T02:15:02.770Z,9.10
2019-03-22T02:20:08.590Z,9.10
2019-03-22T02:25:13.203Z,9.00
2019-03-22T02:30:17.636Z,9.10
2019-03-22T02:35:29.226Z,9.10
2019-03-22T02:40:28.238Z,9.00
2019-03-22T02:45:32.567Z,9.00
2019-03-22T02:50:37.097Z,9.00
2019-03-22T02:55:41.390Z,8.90
2019-03-22T03:00:45.713Z,8.80
2019-03-22T03:05:49.967Z,8.90
2019-03-22T03:10:54.230Z,8.90
2019-03-22T03:15:59.187Z,8.90
2019-03-22T03:21:03.487Z,8.80
2019-03-22T03:26:07.984Z,8.80
2019-03-22T03:31:12.239Z,8.80
2019-03-22T03:36:16.484Z,8.80
2019-03-22T03:41:20.763Z,8.80
2019-03-22T03:46:25.020Z,8.80
2019-03-22T03:51:29.294Z,8.80
2019-03-22T03:56:33.564Z,8.70
2019-03-22T04:01:37.999Z,8.70
2019-03-22T04:06:42.322Z,8.70
2019-03-22T04:11:46.585Z,8.70
2019-03-22T04:16:50.857Z,8.70
2019-03-22T04:21:55.099Z,8.80
2019-03-22T04:26:59.352Z,8.80
2019-03-22T04:32:03.612Z,8.70
2019-03-22T04:37:07.961Z,8.70
2019-03-22T04:42:12.210Z,8.70
2019-03-22T04:47:20.387Z,8.60
2019-03-22T04:52:26.594Z,8.60
2019-03-22T04:57:32.407Z,8.70
2019-03-22T05:02:37.202Z,8.70
2019-03-22T05:07:42.502Z,8.60
2019-03-22T05:12:48.825Z,8.60
2019-03-22T05:17:53.590Z,8.60
2019-03-22T05:22:59.194Z,8.60
2019-03-22T05:28:05.019Z,8.70
2019-03-22T05:33:11.341Z,9.90
2019-03-22T05:38:15.616Z,8.60
2019-03-22T05:43:19.872Z,8.60
2019-03-22T05:48:24.118Z,8.60
2019-03-22T05:53:28.381Z,8.70
2019-03-22T05:58:32.721Z,8.70
2019-03-22T06:03:37.006Z,8.70
2019-03-22T06:08:41.342Z,8.70
2019-03-22T06:13:45.680Z,8.70
2019-03-22T06:18:50.535Z,8.70
2019-03-22T06:23:54.877Z,8.70
2019-03-22T06:28:59.415Z,8.80
2019-03-22T06:34:03.694Z,8.80
2019-03-22T06:39:09.778Z,8.90
2019-03-22T06:44:14.289Z,9.00
2019-03-22T06:49:18.637Z,9.10
2019-03-22T06:54:31.633Z,9.20
2019-03-22T06:59:28.900Z,9.20
2019-03-22T07:04:33.168Z,9.30
2019-03-22T07:09:37.453Z,9.40
2019-03-22T07:14:41.712Z,9.50
2019-03-22T07:19:45.970Z,9.60
2019-03-22T07:24:50.482Z,9.60
2019-03-22T07:29:54.762Z,9.70
2019-03-22T07:34:59.037Z,9.70
2019-03-22T07:40:03.680Z,9.70
2019-03-22T07:45:08.402Z,9.80
2019-03-22T07:50:12.990Z,9.80
2019-03-22T07:55:17.264Z,9.80
2019-03-22T08:00:30.624Z,9.90
2019-03-22T08:05:28.082Z,10.00
2019-03-22T08:10:32.406Z,10.00
2019-03-22T08:15:36.695Z,10.00
2019-03-22T08:20:41.136Z,10.10
2019-03-22T08:25:45.432Z,10.30
2019-03-22T08:30:49.799Z,10.30
2019-03-22T08:35:54.128Z,10.30
2019-03-22T08:40:58.410Z,10.30
2019-03-22T08:46:02.768Z,10.40
2019-03-22T08:51:07.024Z,10.20
2019-03-22T08:56:11.331Z,10.20
2019-03-22T09:01:15.645Z,10.40
2019-03-22T09:06:19.920Z,10.80
2019-03-22T09:11:24.447Z,11.00
2019-03-22T09:16:30.819Z,11.00
2019-03-22T09:21:34.975Z,11.00
2019-03-22T09:26:47.610Z,10.90
2019-03-22T09:31:45.554Z,11.00
2019-03-22T09:36:49.852Z,11.00
2019-03-22T09:41:54.193Z,11.20
2019-03-22T09:46:58.451Z,11.30
2019-03-22T09:52:02.755Z,11.20
2019-03-22T09:57:07.079Z,11.30
2019-03-22T10:02:11.418Z,11.20
2019-03-22T10:07:15.713Z,11.10
2019-03-22T10:12:19.978Z,11.10
2019-03-22T10:17:24.336Z,11.40
2019-03-22T10:22:28.975Z,11.50
2019-03-22T10:27:33.269Z,11.50
2019-03-22T10:32:37.555Z,11.60
2019-03-22T10:37:41.891Z,11.60
2019-03-22T10:42:46.433Z,11.80
2019-03-22T10:47:50.711Z,11.80
2019-03-22T10:52:55.227Z,11.80
2019-03-22T10:57:59.755Z,11.70
2019-03-22T11:03:04.101Z,11.80
2019-03-22T11:08:08.394Z,11.70
2019-03-22T11:13:12.897Z,11.70
2019-03-22T11:18:17.195Z,11.50
2019-03-22T11:23:21.546Z,11.50
2019-03-22T11:28:25.826Z,11.60
2019-03-22T11:33:30.906Z,11.50
2019-03-22T11:38:35.216Z,11.50
2019-03-22T11:43:39.478Z,11.50
2019-03-22T11:48:43.752Z,11.50
2019-03-22T11:53:48.052Z,11.50
2019-03-22T11:58:52.354Z,11.30
2019-03-22T12:03:56.648Z,11.40
2019-03-22T12:09:01.006Z,11.30
2019-03-22T12:14:05.451Z,11.40
2019-03-22T12:19:09.737Z,11.50
2019-03-22T12:24:14.087Z,11.60
2019-03-22T12:29:18.442Z,11.60
2019-03-22T12:34:22.739Z,11.60
2019-03-22T12:39:27.025Z,11.50
2019-03-22T12:44:31.306Z,11.60
2019-03-22T12:49:35.866Z,11.50
2019-03-22T12:54:40.418Z,11.50
2019-03-22T12:59:44.961Z,11.70
2019-03-22T13:04:49.251Z,11.80
2019-03-22T13:09:53.576Z,11.70
2019-03-22T13:14:57.840Z,11.50
2019-03-22T13:20:02.212Z,11.60
2019-03-22T13:25:07.158Z,11.80
2019-03-22T13:30:11.775Z,11.90
2019-03-22T13:35:16.107Z,12.00
2019-03-22T13:40:20.450Z,12.00
2019-03-22T13:45:24.946Z,11.80
2019-03-22T13:50:29.200Z,11.80
2019-03-22T13:55:33.463Z,11.80
2019-03-22T14:00:37.807Z,11.60
2019-03-22T14:05:42.068Z,11.50
2019-03-22T14:10:46.316Z,11.60
2019-03-22T14:15:50.822Z,11.70
2019-03-22T14:21:04.707Z,11.70
2019-03-22T14:26:08.942Z,11.70
2019-03-22T14:31:13.434Z,11.70
2019-03-22T14:36:17.677Z,11.80
2019-03-22T14:41:21.928Z,11.70
2019-03-22T14:46:26.192Z,11.60
2019-03-22T14:51:30.438Z,11.60
2019-03-22T14:56:34.683Z,11.50
2019-03-22T15:01:38.947Z,11.30
2019-03-22T15:06:43.180Z,11.30
2019-03-22T15:11:47.433Z,11.20
2019-03-22T15:17:10.035Z,11.20
2019-03-22T15:22:32.337Z,11.00
2019-03-22T15:27:58.699Z,11.00
2019-03-22T15:33:15.819Z,11.00
2019-03-22T15:38:39.374Z,10.80
2019-03-22T15:43:44.771Z,10.80
2019-03-22T15:48:49.060Z,10.80
2019-03-22T15:53:53.326Z,10.80
2019-03-22T16:04:01.535Z,10.80
2019-03-22T16:09:07.866Z,10.80
2019-03-22T16:14:12.110Z,10.70
2019-03-22T16:19:16.375Z,10.70
2019-03-22T16:24:20.605Z,10.70
2019-03-22T16:29:25.120Z,10.50
2019-03-22T16:34:29.657Z,10.40
2019-03-22T16:39:33.935Z,10.40
2019-03-22T16:44:38.181Z,10.30
2019-03-22T16:54:46.012Z,10.20
2019-03-22T16:59:50.271Z,10.20
2019-03-22T17:04:54.531Z,10.10
2019-03-22T17:09:58.870Z,10.00
2019-03-22T17:15:03.394Z,10.00
2019-03-22T17:40:22.470Z,9.70
2019-03-22T17:45:26.785Z,9.70
2019-03-22T17:55:35.078Z,9.60
2019-03-22T18:00:39.454Z,9.60
2019-03-22T18:05:43.760Z,9.60
2019-03-22T18:10:48.134Z,9.50
2019-03-22T18:15:52.437Z,9.40
2019-03-22T18:26:00.588Z,9.40
2019-03-22T18:31:05.456Z,9.40
2019-03-22T18:41:13.871Z,9.30
2019-03-22T18:46:18.194Z,9.30
2019-03-22T18:51:22.503Z,9.30
2019-03-22T18:56:27.079Z,9.30
2019-03-22T19:01:31.358Z,9.30
2019-03-22T19:11:39.404Z,9.30
2019-03-22T19:21:47.256Z,9.30
2019-03-22T19:26:51.758Z,9.30
2019-03-22T19:31:55.990Z,9.30
2019-03-22T19:37:00.463Z,9.20
2019-03-22T19:42:04.971Z,9.10
2019-03-22T19:47:09.498Z,9.00
2019-03-22T19:52:13.920Z,8.90
2019-03-22T19:57:18.308Z,8.60
2019-03-22T20:02:22.994Z,8.60
2019-03-22T20:07:27.796Z,8.40
2019-03-22T20:12:32.235Z,8.20
2019-03-22T20:17:37.606Z,7.90
2019-03-22T20:22:41.913Z,7.90
2019-03-22T20:27:46.168Z,7.60
2019-03-22T20:37:54.108Z,7.30
2019-03-22T20:42:59.355Z,7.10
2019-03-22T20:48:03.705Z,7.00
2019-03-22T20:53:08.214Z,6.90
2019-03-22T20:58:12.510Z,6.70
2019-03-22T21:03:17.226Z,6.70
2019-03-22T21:08:21.577Z,6.70
2019-03-22T21:13:26.090Z,6.70
2019-03-22T21:18:30.545Z,6.60
2019-03-22T21:23:36.541Z,6.60
2019-03-22T21:28:41.191Z,6.50
2019-03-22T21:33:45.785Z,6.50
2019-03-22T21:38:50.304Z,6.50
2019-03-22T21:43:54.822Z,6.50
2019-03-22T21:48:59.057Z,6.50
2019-03-22T21:54:03.497Z,6.60
2019-03-22T21:59:07.838Z,6.60
2019-03-22T22:04:12.367Z,6.50
2019-03-22T22:14:21.604Z,6.50
2019-03-22T22:19:26.533Z,6.50
2019-03-22T22:24:31.176Z,6.50
2019-03-22T22:29:35.676Z,6.40
2019-03-22T22:34:40.489Z,6.40
2019-03-22T22:39:44.896Z,6.40
2019-03-22T22:44:49.569Z,6.40
2019-03-22T22:49:54.227Z,6.50
2019-03-22T22:54:58.558Z,6.70
2019-03-22T23:00:02.909Z,6.70
2019-03-22T23:05:08.800Z,6.80
2019-03-22T23:10:13.299Z,6.80
2019-03-22T23:15:17.626Z,6.80
2019-03-22T23:20:22.423Z,6.90
2019-03-22T23:35:34.108Z,6.80
2019-03-22T23:45:42.436Z,6.70
2019-03-22T23:50:46.792Z,6.50
